Latest Weather Observations for St George

IDQ60801

Issued at 5:02 pm EST Friday 26 May 2017 (issued every 30 minutes, with the page automatically refreshed every 10 minutes)

About weather observations | Map of weather stations | Latest weather observations for QLD | Other Formats
Station Details ID: 043109 Name: ST GEORGE AIRPORT Lat: -28.05 Lon: 148.59 Height: 198.5 m
Data from the previous 72 hours. | See also: Recent months at St George
Date/Time
EST
Temp
°C
App
Temp
°C
Dew
Point
°C
Rel
Hum
%
Delta-T
°C
Wind Press
QNH
hPa
Press
MSL
hPa
Rain since
9am
mm
Dir  Spd
km/h
Gust
km/h
Spd
kts
Gust
kts
26/05:00pm 21.4 18.0 1.6 27 9.2 SE 9 11 5 6 1018.0 - 0.0
26/04:30pm 22.1 18.2 1.2 25 9.7 SSE 11 15 6 8 1017.9 - 0.0
26/04:00pm 22.7 18.8 1.1 24 10.1 ESE 11 15 6 8 1017.8 - 0.0
26/03:30pm 22.5 19.6 2.6 27 9.5 SSE 7 22 4 12 1017.8 - 0.0
26/03:00pm 22.8 19.8 2.3 26 9.8 SSW 7 15 4 8 1017.8 1017.5 0.0
26/02:30pm 22.1 17.8 1.2 25 9.7 S 13 17 7 9 1018.1 - 0.0
26/02:00pm 22.1 18.9 2.8 28 9.2 SSW 9 15 5 8 1018.5 - 0.0
26/01:30pm 21.7 19.0 3.9 31 8.7 E 7 9 4 5 1019.0 - 0.0
26/01:00pm 21.3 18.1 3.0 30 8.8 S 9 17 5 9 1019.5 - 0.0
26/12:30pm 20.3 17.9 5.1 37 7.5 SW 7 15 4 8 1020.1 - 0.0
26/12:00pm 19.8 16.9 4.7 37 7.4 SSE 9 15 5 8 1020.8 1020.5 0.0
26/11:30am 18.9 15.2 4.7 39 6.9 SW 13 17 7 9 1021.4 - 0.0
26/11:00am 18.9 16.4 6.4 44 6.3 SW 9 13 5 7 1021.9 - 0.0
26/10:30am 18.3 16.2 6.5 46 5.9 WNW 7 13 4 7 1022.4 - 0.0
26/10:00am 17.8 16.3 6.7 48 5.6 NW 4 7 2 4 1022.5 - 0.0
26/09:30am 16.6 15.6 7.5 55 4.6 SSE 2 6 1 3 1022.5 - 0.0
26/09:00am 14.2 12.2 7.3 63 3.4 S 7 9 4 5 1022.4 1022.1 0.0
26/08:30am 12.3 11.5 6.6 68 2.7 CALM 0 0 0 0 1022.1 - 0.0
26/08:00am 10.2 9.4 6.4 77 1.8 CALM 0 0 0 0 1021.9 - 0.0
26/07:30am 7.1 6.1 5.6 90 0.7 CALM 0 0 0 0 1021.7 - 0.0
26/07:00am 5.0 3.4 2.7 85 0.9 CALM 0 0 0 0 1021.7 - 0.0
26/06:30am 5.3 3.8 2.8 84 1.0 CALM 0 0 0 0 1021.2 - 0.0
26/06:00am 5.5 4.0 3.0 84 1.0 CALM 0 0 0 0 1020.8 1020.5 0.0
26/05:30am 5.8 4.3 3.1 83 1.1 CALM 0 0 0 0 1020.6 - 0.0
26/05:00am 6.4 5.1 3.9 84 1.1 CALM 0 0 0 0 1020.4 - 0.0
26/04:30am 5.7 3.1 3.0 83 1.1 W 6 7 3 4 1020.1 - 0.0
26/04:00am 6.6 5.1 4.8 88 0.8 SW 2 6 1 3 1020.2 - 0.0
26/03:30am 6.6 5.2 3.6 81 1.3 CALM 0 0 0 0 1020.3 - 0.0
26/03:00am 6.8 5.4 3.8 81 1.3 CALM 0 0 0 0 1020.1 1019.8 0.0
26/02:30am 7.3 6.0 3.9 79 1.5 CALM 0 0 0 0 1020.4 - 0.0
26/02:00am 7.4 6.0 3.8 78 1.6 CALM 0 0 0 0 1020.5 - 0.0
26/01:30am 7.8 6.5 4.0 77 1.7 CALM 0 0 0 0 1020.7 - 0.0
26/01:00am 7.8 6.5 4.0 77 1.7 CALM 0 0 0 0 1020.9 - 0.0
26/12:30am 8.1 6.7 3.6 73 2.0 CALM 0 0 0 0 1021.0 - 0.0
26/12:00am 8.5 7.1 3.8 72 2.1 CALM 0 0 0 0 1021.0 1020.7 0.0
 
Date/Time
EST
Temp
°C
App
Temp
°C
Dew
Point
°C
Rel
Hum
%
Delta-T
°C
Wind Press
QNH
hPa
Press
MSL
hPa
Rain since
9am
mm
Dir  Spd
km/h
Gust
km/h
Spd
kts
Gust
kts
25/11:30pm 8.9 7.5 3.5 69 2.4 CALM 0 0 0 0 1021.2 - 0.0
25/11:00pm 9.4 8.1 4.2 70 2.3 CALM 0 0 0 0 1021.1 - 0.0
25/10:30pm 9.8 8.4 3.8 66 2.7 CALM 0 0 0 0 1021.1 - 0.0
25/10:00pm 10.2 8.8 3.7 64 2.9 CALM 0 0 0 0 1021.1 - 0.0
25/09:30pm 11.8 11.0 6.3 69 2.6 CALM 0 0 0 0 1021.1 - 0.0
25/09:00pm 11.4 10.2 4.6 63 3.1 CALM 0 0 0 0 1020.8 1020.5 0.0
25/08:30pm 12.4 11.3 5.3 62 3.3 CALM 0 0 0 0 1020.8 - 0.0
25/08:00pm 13.5 12.5 5.7 59 3.7 CALM 0 0 0 0 1020.9 - 0.0
25/07:30pm 13.9 12.2 5.8 58 3.9 SW 4 7 2 4 1020.5 - 0.0
25/07:00pm 14.8 13.4 5.3 53 4.5 SSW 2 7 1 4 1020.2 - 0.0
25/06:30pm 15.6 13.4 6.1 53 4.6 SSW 7 9 4 5 1020.0 - 0.0
25/06:00pm 17.0 14.6 4.3 43 6.0 SW 6 7 3 4 1019.7 1019.4 0.0
25/05:30pm 18.9 16.2 5.4 41 6.7 SSE 9 11 5 6 1019.4 - 0.0
25/05:00pm 20.6 17.2 4.2 34 8.0 S 11 17 6 9 1019.2 - 0.0
25/04:30pm 21.4 17.3 4.5 33 8.3 S 15 19 8 10 1019.0 - 0.0
25/04:00pm 21.6 17.4 3.8 31 8.7 SSW 15 20 8 11 1018.9 - 0.0
25/03:30pm 21.9 17.4 4.0 31 8.8 S 17 22 9 12 1018.9 - 0.0
25/03:00pm 22.1 17.3 4.6 32 8.7 S 19 24 10 13 1018.9 1018.6 0.0
25/02:30pm 21.7 18.4 4.7 33 8.4 S 11 19 6 10 1019.1 - 0.0
25/02:00pm 21.2 17.1 4.3 33 8.3 S 15 24 8 13 1019.3 - 0.0
25/01:30pm 21.2 17.9 4.7 34 8.1 SW 11 19 6 10 1019.7 - 0.0
25/01:00pm 21.4 17.9 5.3 35 8.1 SSW 13 20 7 11 1020.2 - 0.0
25/12:30pm 20.4 16.6 5.6 38 7.4 SSW 15 20 8 11 1020.6 - 0.0
25/12:00pm 20.3 15.9 4.8 36 7.6 S 17 24 9 13 1021.1 1020.8 0.0
25/11:30am 20.0 16.3 6.4 41 6.9 SSE 15 26 8 14 1021.7 - 0.0
25/11:00am 19.1 15.5 6.6 44 6.3 ESE 15 20 8 11 1022.0 - 0.0
25/10:30am 18.5 14.1 6.7 46 5.9 SSE 19 26 10 14 1022.2 - 0.0
25/10:00am 17.6 14.0 6.8 49 5.4 SSE 15 20 8 11 1022.4 - 0.0
25/09:30am 16.4 13.3 7.1 54 4.7 SSE 13 19 7 10 1022.4 - 0.0
25/09:00am 15.0 12.6 7.1 59 3.9 SSE 9 13 5 7 1022.4 1022.1 0.0
25/08:30am 13.7 12.6 6.8 63 3.4 WSW 2 7 1 4 1022.1 - 0.0
25/08:00am 11.6 9.6 7.3 75 2.1 W 7 7 4 4 1021.9 - 0.0
25/07:30am 8.1 7.3 6.4 89 0.8 CALM 0 0 0 0 1021.7 - 0.0
25/07:00am 6.8 5.3 4.8 87 0.9 WNW 2 7 1 4 1021.2 - 0.0
25/06:30am 6.6 4.5 4.1 84 1.1 WNW 4 6 2 3 1021.1 - 0.0
25/06:00am 6.7 5.5 4.4 85 1.0 CALM 0 0 0 0 1020.7 1020.4 0.0
25/05:30am 6.8 5.6 4.5 85 1.0 CALM 0 0 0 0 1020.5 - 0.0
25/05:00am 7.3 6.2 4.9 85 1.1 CALM 0 0 0 0 1020.4 - 0.0
25/04:30am 7.6 6.4 4.4 80 1.4 CALM 0 0 0 0 1020.3 - 0.0
25/04:00am 8.5 7.4 4.9 78 1.6 CALM 0 0 0 0 1020.2 - 0.0
25/03:30am 9.6 8.6 5.8 77 1.8 CALM 0 0 0 0 1020.3 - 0.0
25/03:00am 10.0 7.9 5.8 75 1.9 SE 6 6 3 3 1020.3 1020.0 0.0
25/02:30am 10.9 8.6 5.9 71 2.3 SE 7 9 4 5 1020.3 - 0.0
25/02:00am 11.4 9.3 6.5 72 2.3 SSE 7 7 4 4 1020.4 - 0.0
25/01:30am 11.9 9.4 6.4 69 2.6 SSE 9 13 5 7 1020.5 - 0.0
25/01:00am 12.8 10.0 6.8 67 2.9 SSE 11 13 6 7 1020.6 - 0.0
25/12:30am 13.7 10.9 6.8 63 3.4 SSE 11 15 6 8 1020.7 - 0.0
25/12:00am 14.6 11.4 6.9 60 3.8 SSE 13 17 7 9 1020.8 1020.5 0.0
 
Date/Time
EST
Temp
°C
App
Temp
°C
Dew
Point
°C
Rel
Hum
%
Delta-T
°C
Wind Press
QNH
hPa
Press
MSL
hPa
Rain since
9am
mm
Dir  Spd
km/h
Gust
km/h
Spd
kts
Gust
kts
24/11:30pm 15.0 11.5 7.3 60 3.8 SSE 15 19 8 10 1020.9 - 0.0
24/11:00pm 14.9 12.2 7.5 61 3.7 SSE 11 13 6 7 1020.9 - 0.0
24/10:30pm 15.9 13.3 7.7 58 4.1 S 11 15 6 8 1020.8 - 0.0
24/10:00pm 16.4 13.8 7.9 57 4.3 S 11 13 6 7 1020.6 - 0.0
24/09:30pm 16.6 13.9 7.5 55 4.6 S 11 15 6 8 1020.3 - 0.0
24/09:00pm 17.5 14.8 7.3 51 5.2 S 11 15 6 8 1020.1 1019.8 0.0
24/08:30pm 18.3 15.2 7.4 49 5.6 SSW 13 19 7 10 1019.8 - 0.0
24/08:00pm 19.0 15.9 7.4 47 5.9 S 13 17 7 9 1019.6 - 0.0
24/07:30pm 19.8 16.7 7.2 44 6.5 SSW 13 19 7 10 1019.2 - 0.0
24/07:00pm 20.4 17.3 7.1 42 6.8 S 13 19 7 10 1018.9 - 0.0
24/06:30pm 21.5 18.0 7.3 40 7.4 SSW 15 20 8 11 1018.5 - 0.0
24/06:00pm 22.2 18.8 7.6 39 7.6 SW 15 17 8 9 1018.2 1017.9 0.0
24/05:30pm 23.6 19.7 7.3 35 8.6 SW 17 20 9 11 1017.8 - 0.0
24/05:00pm 24.7 20.4 6.9 32 9.4 SW 19 28 10 15 1017.5 - 0.0
24/04:30pm 25.8 20.8 6.4 29 10.2 SW 22 30 12 16 1017.2 - 0.0
24/04:00pm 26.2 21.2 6.3 28 10.4 SW 22 32 12 17 1016.9 - 0.0
24/03:30pm 27.0 21.8 5.3 25 11.2 SW 22 30 12 16 1016.8 - 0.0
24/03:00pm 27.3 22.7 6.7 27 10.9 SW 20 30 11 16 1016.7 1016.3 0.0
24/02:30pm 27.0 21.0 5.3 25 11.2 WSW 26 35 14 19 1016.7 - 0.0
24/02:00pm 27.4 22.3 6.2 26 11.2 WSW 22 32 12 17 1017.0 - 0.0
24/01:30pm 27.4 21.7 6.8 27 11.0 SW 26 32 14 17 1017.2 - 0.0
24/01:00pm 27.3 21.8 6.1 26 11.2 SW 24 32 13 17 1017.4 - 0.0
24/12:30pm 27.8 21.9 7.6 28 10.9 WSW 28 35 15 19 1017.7 - 0.0
24/12:00pm 27.7 22.4 7.0 27 11.1 W 24 35 13 19 1018.1 1017.8 0.0
24/11:30am 27.9 22.8 7.7 28 11.0 WNW 24 35 13 19 1018.5 - 0.0
24/11:00am 27.9 23.3 8.2 29 10.8 W 22 32 12 17 1018.9 - 0.0
24/10:30am 27.3 23.3 8.2 30 10.4 WNW 19 24 10 13 1019.2 - 0.0
24/10:00am 26.2 22.7 8.7 33 9.6 WNW 17 24 9 13 1019.5 - 0.0
24/09:30am 24.0 20.0 8.4 37 8.4 W 19 24 10 13 1019.7 - 0.0
24/09:00am 22.3 19.4 9.8 45 6.8 WNW 15 20 8 11 1019.6 1019.3 0.0
24/08:30am 19.6 16.9 10.3 55 5.1 NNW 15 20 8 11 1019.3 - 0.0
24/08:00am 17.6 15.1 9.8 60 4.2 N 13 19 7 10 1019.2 - 0.0
24/07:30am 16.4 14.3 9.8 65 3.5 N 11 17 6 9 1019.1 - 0.0
24/07:00am 15.4 13.3 9.7 69 3.0 N 11 15 6 8 1018.8 - 0.0
24/06:30am 15.4 13.3 9.7 69 3.0 N 11 13 6 7 1018.6 - 0.0
24/06:00am 15.8 13.4 9.9 68 3.1 N 13 17 7 9 1018.4 1018.1 0.0
24/05:30am 15.5 13.0 9.8 69 3.0 N 13 15 7 8 1018.2 - 0.0
24/05:00am 15.4 13.4 10.2 71 2.8 N 11 13 6 7 1018.1 - 0.0
24/04:30am 15.0 14.0 10.4 74 2.4 N 6 9 3 5 1018.1 - 0.0
24/04:00am 14.7 13.4 9.9 73 2.5 N 7 9 4 5 1018.0 - 0.0
24/03:30am 15.0 13.4 10.2 73 2.5 NNE 9 13 5 7 1018.0 - 0.0
24/03:00am 15.3 13.7 10.3 72 2.6 NNE 9 11 5 6 1018.1 1017.8 0.0
24/02:30am 15.0 13.5 10.6 75 2.3 N 9 9 5 5 1018.2 - 0.0
24/02:00am 13.9 12.2 8.5 70 2.7 NNE 7 9 4 5 1018.6 - 0.0
24/01:30am 14.6 13.0 8.8 68 3.0 NNE 7 9 4 5 1018.7 - 0.0
24/01:00am 16.3 15.1 9.5 64 3.6 NE 6 9 3 5 1018.8 - 0.0
24/12:30am 17.2 15.5 9.9 62 3.9 NNE 9 11 5 6 1019.0 - 0.0
24/12:00am 18.6 16.5 9.9 57 4.7 N 11 15 6 8 1019.1 1018.8 0.0
 
Date/Time
EST
Temp
°C
App
Temp
°C
Dew
Point
°C
Rel
Hum
%
Delta-T
°C
Wind Press
QNH
hPa
Press
MSL
hPa
Rain since
9am
mm
Dir  Spd
km/h
Gust
km/h
Spd
kts
Gust
kts
23/11:30pm 17.2 14.9 10.6 65 3.6 N 13 15 7 8 1019.3 - 0.0
23/11:00pm 15.5 14.5 9.0 65 3.4 N 4 6 2 3 1019.7 - 0.0
23/10:30pm 16.3 14.4 9.0 62 3.8 E 9 13 5 7 1019.8 - 0.0
23/10:00pm 15.4 13.7 8.4 63 3.6 ESE 7 9 4 5 1019.6 - 0.0
23/09:30pm 15.6 15.3 8.8 64 3.5 CALM 0 0 0 0 1019.5 - 0.0
23/09:00pm 16.2 15.4 9.6 65 3.5 N 4 6 2 3 1019.2 1018.9 0.0
23/08:30pm 17.1 16.1 10.2 64 3.7 N 6 6 3 3 1019.1 - 0.0
23/08:00pm 17.4 17.1 8.5 56 4.6 CALM 0 0 0 0 1019.0 - 0.0
23/07:30pm 18.6 18.5 9.4 55 4.9 CALM 0 0 0 0 1018.9 - 0.0
23/07:00pm 19.5 19.5 9.7 53 5.3 CALM 0 0 0 0 1018.7 - 0.0
23/06:30pm 20.7 20.6 9.3 48 6.1 CALM 0 0 0 0 1018.6 - 0.0
23/06:00pm 21.9 21.7 9.1 44 6.9 CALM 0 0 0 0 1018.5 1018.2 0.0
23/05:30pm 24.3 22.8 8.3 36 8.6 WSW 6 7 3 4 1018.2 - 0.0

Other Formats:

Comma delimited format used in spreadsheet applications
http://www.bom.gov.au/fwo/IDQ60801/IDQ60801.94517.axf

JavaScript Object Notation format (JSON) in row-major order
http://www.bom.gov.au/fwo/IDQ60801/IDQ60801.94517.json